Strona główna
METAR-TAF:

METAR-TAF

Lotnisko :

Port lotniczy Siem Reap

Siem Reap, Kambodża

Szerokość geograficzna: 13-22N, Długość geograficzna: 103-51E, wysokość: 15 m

Aktualna obserwacja pogody

Raport powstał 34 minut temu, godzina 20:30 UTC
Wiatr 1 kt od południowy wschód
Temperatura 26°C
Wilgotność 94%
Ciśnienie 1009 hPa
Widzialność: 9000 m
Rozproszone chmury na wysokości 1500 ft

METAR: VDSR 102030Z 13001KT 9000 SCT015 26/25 Q1009

czas: 04:04 (21:04 UTC)

Prognoza

Raport powstał 4 godziny i 4 minut temu, godzina 17:00 UTC
Prognoza ważna od 10 godzina 18 UTC do 11 godzina 12 UTC
Wiatr 7 kt od południowy wschód
Widzialność 10 km lub więcej
Rozproszone chmury na wysokości 1700 ft
Przejściowo
od 11 godzina 06 UTC do 11 godzina 11 UTC
Rozproszone chmury na wysokości 1500 ft
Mało chmury na wysokości 1700 ft, Cumulonimbus.

TAF: VDSR 101700Z 1018/1112 14007KT 9999 SCT017 TEMPO 1106/1111 SCT015 FEW017CB

Obserwacja i prognoza pogody dla ponad 4000 lotnisk (raport METAR i TAF).

Dostępne stacje oznaczono żółtymi i czerwonymi punktami na mapie.

Najedź kursorem aby zobaczyć nazwę stacji.

Kliknij aby zobaczyć obserwacje i prognozy pogody.

Aby zmienić mapę: kliknij na zielony przycisk z czarnym krzyżykiem, aby powiększyć; na zielony przycisk z myślnikiem, aby pomniejszyć; na zielone strzałki, aby przejść do map sąsiednich.


METAR-TAF: